createdAt,value
2022-12-27T00:00:41.502Z,64.64
2022-12-27T00:03:09.533Z,64.51
2022-12-27T00:05:37.727Z,64.68
2022-12-27T00:08:05.916Z,64.58
2022-12-27T00:10:34.194Z,64.61
2022-12-27T00:13:02.177Z,64.43
2022-12-27T00:15:30.317Z,64.65
2022-12-27T00:17:59.826Z,64.52
2022-12-27T00:20:27.855Z,64.57
2022-12-27T00:22:55.841Z,64.29
2022-12-27T00:25:24.128Z,64.48
2022-12-27T00:27:52.439Z,64.76
2022-12-27T00:30:20.585Z,64.99
2022-12-27T00:32:48.552Z,65.14
2022-12-27T00:35:18.297Z,64.99
2022-12-27T00:37:46.493Z,64.71
2022-12-27T00:40:14.686Z,64.84
2022-12-27T00:42:42.763Z,64.91
2022-12-27T00:45:12.008Z,65.07
2022-12-27T00:47:40.357Z,64.98
2022-12-27T00:50:08.935Z,64.81
2022-12-27T00:52:38.294Z,64.71
2022-12-27T00:55:09.193Z,65.05
2022-12-27T00:57:37.223Z,65.03
2022-12-27T01:00:10.132Z,65.20
2022-12-27T01:02:38.822Z,64.93
2022-12-27T01:05:07.805Z,65.04
2022-12-27T01:07:36.005Z,65.15
2022-12-27T01:10:06.936Z,65.13
2022-12-27T01:12:36.417Z,64.89
2022-12-27T01:15:04.737Z,64.69
2022-12-27T01:17:33.007Z,65.56
2022-12-27T01:20:01.376Z,65.14
2022-12-27T01:22:29.355Z,65.26
2022-12-27T01:24:57.548Z,64.88
2022-12-27T01:27:27.121Z,65.08
2022-12-27T01:29:55.161Z,65.03
2022-12-27T01:32:23.305Z,64.70
2022-12-27T01:34:51.961Z,65.01
2022-12-27T01:37:19.944Z,64.97
2022-12-27T01:39:48.213Z,64.90
2022-12-27T01:42:35.593Z,64.88
2022-12-27T01:45:12.168Z,64.81
2022-12-27T01:47:49.025Z,64.97
2022-12-27T01:50:22.933Z,65.19
2022-12-27T01:52:57.933Z,65.28
2022-12-27T01:55:31.625Z,64.84
2022-12-27T01:58:04.594Z,64.81
2022-12-27T02:00:34.186Z,65.22
2022-12-27T02:03:06.260Z,65.55
2022-12-27T02:05:36.361Z,66.04
2022-12-27T02:08:21.432Z,66.44
2022-12-27T02:10:50.169Z,66.14
2022-12-27T02:13:19.696Z,66.18
2022-12-27T02:15:49.063Z,66.04
2022-12-27T02:18:17.404Z,65.96
2022-12-27T02:21:09.690Z,66.52
2022-12-27T02:24:04.548Z,67.05
2022-12-27T02:26:42.993Z,67.41
2022-12-27T02:29:27.814Z,67.55
2022-12-27T02:32:00.998Z,67.32
2022-12-27T02:34:34.643Z,66.80
2022-12-27T02:37:08.388Z,66.68
2022-12-27T02:39:40.424Z,66.56
2022-12-27T02:42:27.436Z,66.95
2022-12-27T02:45:13.723Z,66.68
2022-12-27T02:48:00.453Z,66.82
2022-12-27T02:50:57.341Z,66.56
2022-12-27T02:53:37.944Z,66.79
2022-12-27T02:56:41.001Z,67.54
2022-12-27T02:59:23.626Z,67.45
2022-12-27T03:02:26.137Z,67.45
2022-12-27T03:05:10.292Z,67.08
2022-12-27T03:07:50.119Z,66.73
2022-12-27T03:10:45.576Z,66.85
2022-12-27T03:13:42.457Z,66.91
2022-12-27T03:16:22.259Z,67.18
2022-12-27T03:19:13.590Z,67.97
2022-12-27T03:22:03.315Z,67.93
2022-12-27T03:24:58.150Z,67.68
2022-12-27T03:27:32.888Z,68.01
2022-12-27T03:30:20.897Z,67.88
2022-12-27T03:33:11.066Z,68.06
2022-12-27T03:36:05.870Z,68.09
2022-12-27T03:38:36.595Z,67.62
2022-12-27T03:41:26.022Z,67.97
2022-12-27T03:43:53.956Z,68.54
2022-12-27T03:46:35.108Z,68.27
2022-12-27T03:49:22.967Z,68.35
2022-12-27T03:51:56.671Z,67.96
2022-12-27T03:54:28.519Z,67.76
2022-12-27T03:56:58.244Z,67.34
2022-12-27T03:59:26.871Z,67.24
2022-12-27T04:01:55.342Z,67.17
2022-12-27T04:04:24.998Z,66.98
2022-12-27T04:06:54.469Z,67.08
2022-12-27T04:09:40.194Z,66.80
2022-12-27T04:12:26.014Z,67.05
2022-12-27T04:15:11.438Z,67.74
2022-12-27T04:17:57.149Z,68.10
2022-12-27T04:20:43.158Z,67.56
2022-12-27T04:23:30.323Z,67.58
2022-12-27T04:26:15.498Z,67.66
2022-12-27T04:29:01.011Z,67.40
2022-12-27T04:31:46.553Z,68.45
2022-12-27T04:34:32.114Z,68.65
2022-12-27T04:37:00.288Z,69.38
2022-12-27T04:39:29.744Z,69.15
2022-12-27T04:42:15.281Z,68.73
2022-12-27T04:45:00.738Z,68.73
2022-12-27T04:47:46.471Z,68.63
2022-12-27T04:50:40.250Z,69.29
2022-12-27T04:53:31.786Z,69.52
2022-12-27T04:56:01.499Z,69.37
2022-12-27T04:58:29.784Z,69.79
2022-12-27T05:01:18.590Z,69.45
2022-12-27T05:03:49.950Z,69.21
2022-12-27T05:06:18.551Z,69.20
2022-12-27T05:09:04.530Z,68.63
2022-12-27T05:11:51.201Z,68.71
2022-12-27T05:14:19.365Z,68.83
2022-12-27T05:16:47.472Z,68.19
2022-12-27T05:19:15.915Z,68.29
2022-12-27T05:22:06.027Z,67.97
2022-12-27T05:24:51.671Z,68.25
2022-12-27T05:27:21.298Z,68.22
2022-12-27T05:29:49.459Z,68.08
2022-12-27T05:32:17.444Z,68.01
2022-12-27T05:34:45.470Z,67.89
2022-12-27T05:37:13.483Z,67.54
2022-12-27T05:39:41.552Z,67.33
2022-12-27T05:42:09.763Z,66.78
2022-12-27T05:44:39.145Z,67.28
2022-12-27T05:47:07.212Z,66.90
2022-12-27T05:49:35.307Z,66.91
2022-12-27T05:52:03.460Z,67.76
2022-12-27T05:54:31.676Z,68.05
2022-12-27T05:56:59.644Z,67.86
2022-12-27T05:59:27.635Z,67.50
2022-12-27T06:01:57.229Z,67.36
2022-12-27T06:04:25.396Z,67.23
2022-12-27T06:06:53.695Z,67.26
2022-12-27T06:09:22.050Z,67.20
2022-12-27T06:11:50.083Z,67.09
2022-12-27T06:14:18.101Z,67.09
2022-12-27T06:16:46.275Z,66.80
2022-12-27T06:19:15.767Z,66.91
2022-12-27T06:21:43.758Z,67.10
2022-12-27T06:24:12.131Z,67.46
2022-12-27T06:26:40.230Z,67.41
2022-12-27T06:29:08.171Z,67.47
2022-12-27T06:31:36.202Z,67.18
2022-12-27T06:34:05.086Z,67.34
2022-12-27T06:36:34.557Z,67.43
2022-12-27T06:39:03.129Z,68.16
2022-12-27T06:41:31.384Z,67.84
2022-12-27T06:43:59.906Z,67.93
2022-12-27T06:46:27.996Z,67.93
2022-12-27T06:48:56.087Z,68.35
2022-12-27T06:51:24.321Z,69.18
2022-12-27T06:53:53.950Z,69.33
2022-12-27T06:56:23.293Z,69.68
2022-12-27T06:58:55.833Z,69.67
2022-12-27T07:01:25.958Z,69.72
2022-12-27T07:03:55.871Z,70.10
2022-12-27T07:06:25.793Z,69.44
2022-12-27T07:08:55.913Z,69.63
2022-12-27T07:11:25.021Z,69.74
2022-12-27T07:13:54.907Z,70.14
2022-12-27T07:16:24.594Z,70.21
2022-12-27T07:18:52.765Z,71.18
2022-12-27T07:21:22.977Z,70.70
2022-12-27T07:23:51.569Z,70.94
2022-12-27T07:26:22.947Z,70.62
2022-12-27T07:28:51.301Z,70.92
2022-12-27T07:31:21.123Z,71.39
2022-12-27T07:33:49.107Z,71.35
2022-12-27T07:36:20.041Z,71.14
2022-12-27T07:38:48.515Z,72.08
2022-12-27T07:41:17.937Z,71.92
2022-12-27T07:43:47.618Z,71.16
2022-12-27T07:46:17.713Z,70.87
2022-12-27T07:48:46.556Z,70.22
2022-12-27T07:51:16.162Z,70.90
2022-12-27T07:53:44.505Z,70.04
2022-12-27T07:56:16.761Z,70.15
2022-12-27T07:58:51.499Z,69.97
2022-12-27T08:01:21.398Z,69.98
2022-12-27T08:03:49.770Z,69.80
2022-12-27T08:06:23.657Z,69.68
2022-12-27T08:08:53.972Z,69.96
2022-12-27T08:11:23.211Z,69.72
2022-12-27T08:13:52.842Z,69.77
2022-12-27T08:16:23.347Z,69.75
2022-12-27T08:18:53.117Z,69.58
2022-12-27T08:21:21.355Z,70.06
2022-12-27T08:23:49.628Z,70.32
2022-12-27T08:26:18.214Z,69.43
2022-12-27T08:28:46.281Z,69.41
2022-12-27T08:31:16.052Z,68.89
2022-12-27T08:33:44.147Z,68.90
2022-12-27T08:39:02.036Z,67.76
2022-12-27T08:41:30.119Z,68.02
2022-12-27T08:43:58.110Z,67.35
2022-12-27T08:46:27.674Z,67.62
2022-12-27T08:48:55.788Z,67.22
2022-12-27T08:51:34.352Z,67.49
2022-12-27T08:54:07.098Z,67.07
2022-12-27T08:56:35.385Z,67.22
2022-12-27T08:59:03.762Z,67.51
2022-12-27T09:01:33.437Z,67.65
2022-12-27T09:04:01.605Z,67.58
2022-12-27T09:06:33.272Z,66.81
2022-12-27T09:09:01.523Z,66.83
2022-12-27T09:11:32.336Z,66.65
2022-12-27T09:14:02.037Z,66.57
2022-12-27T09:16:31.225Z,66.53
2022-12-27T09:19:01.396Z,66.91
2022-12-27T09:21:31.948Z,66.78
2022-12-27T09:24:00.530Z,66.59
2022-12-27T09:26:30.547Z,66.39
2022-12-27T09:29:01.978Z,66.20
2022-12-27T09:31:30.110Z,66.47
2022-12-27T09:34:02.362Z,66.43
2022-12-27T09:36:31.634Z,66.07
2022-12-27T09:39:00.464Z,65.44
2022-12-27T09:44:35.622Z,65.65
2022-12-27T09:47:12.361Z,65.31
2022-12-27T09:49:46.724Z,65.40
2022-12-27T09:52:18.895Z,65.41
2022-12-27T09:55:01.006Z,64.87
2022-12-27T09:57:38.224Z,65.13
2022-12-27T10:00:15.758Z,65.25
2022-12-27T10:02:45.562Z,65.68
2022-12-27T10:05:21.938Z,65.75
2022-12-27T10:08:14.284Z,65.76
2022-12-27T10:10:45.840Z,66.74
2022-12-27T10:13:25.846Z,66.57
2022-12-27T10:16:10.531Z,66.37
2022-12-27T10:18:47.830Z,66.95
2022-12-27T10:21:21.899Z,67.14
2022-12-27T10:23:56.849Z,67.78
2022-12-27T10:26:25.127Z,67.96
2022-12-27T10:28:57.686Z,67.65
2022-12-27T10:31:26.839Z,67.66
2022-12-27T10:33:55.432Z,68.11
2022-12-27T10:36:27.678Z,67.35
2022-12-27T10:38:56.266Z,67.05
2022-12-27T10:41:39.902Z,67.11
2022-12-27T10:44:11.576Z,66.96
2022-12-27T10:46:42.544Z,66.34
2022-12-27T10:49:25.761Z,66.41
2022-12-27T10:51:58.880Z,67.24
2022-12-27T10:54:28.876Z,66.96
2022-12-27T10:56:58.171Z,67.89
2022-12-27T10:59:29.370Z,67.17
2022-12-27T11:02:18.356Z,66.66
2022-12-27T11:05:21.163Z,65.88
2022-12-27T11:07:50.577Z,65.35
2022-12-27T11:10:21.675Z,65.01
2022-12-27T11:12:57.964Z,64.50
2022-12-27T11:15:27.032Z,63.85
2022-12-27T11:17:57.224Z,63.92
2022-12-27T11:20:28.798Z,64.61
2022-12-27T11:23:03.133Z,65.22
2022-12-27T11:25:32.590Z,64.35
2022-12-27T11:28:04.035Z,63.84
2022-12-27T11:30:35.567Z,63.68
2022-12-27T11:33:07.142Z,62.70
2022-12-27T11:35:47.609Z,61.91
2022-12-27T11:38:25.245Z,61.60
2022-12-27T11:41:00.946Z,61.66
2022-12-27T11:43:33.644Z,61.08
2022-12-27T11:46:04.284Z,61.46
2022-12-27T11:48:37.490Z,61.13
2022-12-27T11:51:25.280Z,60.95
2022-12-27T11:54:20.844Z,60.13
2022-12-27T11:56:54.163Z,60.21
2022-12-27T11:59:42.131Z,60.86
2022-12-27T12:02:33.509Z,60.50
2022-12-27T12:05:41.805Z,59.92
2022-12-27T12:08:29.890Z,59.69
2022-12-27T12:11:10.887Z,59.83
2022-12-27T12:13:59.689Z,59.61
2022-12-27T12:16:56.613Z,59.39
2022-12-27T12:19:42.553Z,59.94
2022-12-27T12:22:31.174Z,60.13
2022-12-27T12:25:24.410Z,60.63
2022-12-27T12:28:56.483Z,60.83
2022-12-27T12:31:28.739Z,60.51
2022-12-27T12:34:14.879Z,60.31
2022-12-27T12:36:54.402Z,60.19
2022-12-27T12:39:33.571Z,59.44
2022-12-27T12:42:16.192Z,59.57
2022-12-27T12:45:20.782Z,59.16
2022-12-27T12:48:07.761Z,58.45
2022-12-27T12:51:03.005Z,58.47
2022-12-27T12:53:58.994Z,59.07
2022-12-27T12:56:55.891Z,59.42
2022-12-27T12:59:40.866Z,59.67
2022-12-27T13:02:33.472Z,60.23
2022-12-27T13:05:13.861Z,60.41
2022-12-27T13:07:53.681Z,60.33
2022-12-27T13:10:44.671Z,60.54
2022-12-27T13:13:23.949Z,60.12
2022-12-27T13:16:01.041Z,60.50
2022-12-27T13:18:39.217Z,60.01
2022-12-27T13:21:17.545Z,61.18
2022-12-27T13:23:59.795Z,60.79
2022-12-27T13:26:39.699Z,60.51
2022-12-27T13:29:34.994Z,60.80
2022-12-27T13:32:13.405Z,61.59
2022-12-27T13:34:51.445Z,61.44
2022-12-27T13:37:33.647Z,61.72
2022-12-27T13:40:26.414Z,60.81
2022-12-27T13:43:18.266Z,60.63
2022-12-27T13:46:05.421Z,60.57
2022-12-27T13:48:57.769Z,60.88
2022-12-27T13:51:45.593Z,60.48
2022-12-27T13:54:46.014Z,60.56
2022-12-27T13:57:30.727Z,60.98
2022-12-27T14:00:14.675Z,60.47
2022-12-27T14:03:24.320Z,59.97
2022-12-27T14:06:16.656Z,59.86
2022-12-27T14:09:22.508Z,59.79
2022-12-27T14:12:06.018Z,60.20
2022-12-27T14:14:39.019Z,60.50
2022-12-27T14:17:22.217Z,59.89
2022-12-27T14:20:04.772Z,59.86
2022-12-27T14:22:56.229Z,60.54
2022-12-27T14:26:00.315Z,60.41
2022-12-27T14:28:59.630Z,60.95
2022-12-27T14:32:21.957Z,60.91
2022-12-27T14:35:27.424Z,60.79
2022-12-27T14:38:31.471Z,61.03
2022-12-27T14:41:39.045Z,61.20
2022-12-27T14:44:42.471Z,61.24
2022-12-27T14:47:41.376Z,60.63
2022-12-27T14:50:31.950Z,60.01
2022-12-27T14:53:37.175Z,59.64
2022-12-27T14:56:19.580Z,59.65
2022-12-27T14:58:57.094Z,59.84
2022-12-27T15:01:40.850Z,59.73
2022-12-27T15:04:51.575Z,60.43
2022-12-27T15:07:32.674Z,60.11
2022-12-27T15:10:09.684Z,60.27
2022-12-27T15:12:47.160Z,61.93
2022-12-27T15:15:25.560Z,61.93
2022-12-27T15:18:15.970Z,63.67
2022-12-27T15:21:00.279Z,63.17
2022-12-27T15:23:38.172Z,64.44
2022-12-27T15:26:18.697Z,64.36
2022-12-27T15:28:59.101Z,64.86
2022-12-27T15:31:37.586Z,65.15
2022-12-27T15:34:25.027Z,65.51
2022-12-27T15:36:54.816Z,65.08
2022-12-27T15:39:51.194Z,65.24
2022-12-27T15:42:48.960Z,64.92
2022-12-27T15:45:33.796Z,64.36
2022-12-27T15:48:34.968Z,64.85
2022-12-27T15:51:12.541Z,65.29
2022-12-27T15:54:01.279Z,64.59
2022-12-27T15:56:43.344Z,64.17
2022-12-27T15:59:36.292Z,64.15
2022-12-27T16:02:33.516Z,64.28
2022-12-27T16:05:13.347Z,64.76
2022-12-27T16:07:47.777Z,64.46
2022-12-27T16:10:53.341Z,64.99
2022-12-27T16:13:42.738Z,64.53
2022-12-27T16:16:33.677Z,64.72
2022-12-27T16:19:17.968Z,65.38
2022-12-27T16:21:47.421Z,65.01
2022-12-27T16:24:20.013Z,65.20
2022-12-27T16:26:55.381Z,65.74
2022-12-27T16:29:29.002Z,65.57
2022-12-27T16:32:19.701Z,65.82
2022-12-27T16:34:54.315Z,65.56
2022-12-27T16:37:32.093Z,65.52
2022-12-27T16:40:17.709Z,65.80
2022-12-27T16:43:37.084Z,65.60
2022-12-27T16:46:23.875Z,66.07
2022-12-27T16:49:10.204Z,66.89
2022-12-27T16:51:53.799Z,66.46
2022-12-27T16:54:32.543Z,66.77
2022-12-27T16:57:23.447Z,66.54
2022-12-27T17:00:01.372Z,66.81
2022-12-27T17:02:44.723Z,66.73
2022-12-27T17:05:37.618Z,67.00
2022-12-27T17:08:20.147Z,67.93
2022-12-27T17:11:01.231Z,67.52
2022-12-27T17:13:39.450Z,67.64
2022-12-27T17:16:19.841Z,67.80
2022-12-27T17:18:53.239Z,67.47
2022-12-27T17:21:30.417Z,67.79
2022-12-27T17:24:01.306Z,68.36
2022-12-27T17:27:08.618Z,68.57
2022-12-27T17:30:05.002Z,68.58
2022-12-27T17:33:00.031Z,68.78
2022-12-27T17:35:34.418Z,68.62
2022-12-27T17:38:17.974Z,68.35
2022-12-27T17:40:57.362Z,68.38
2022-12-27T17:43:55.838Z,69.26
2022-12-27T17:46:37.561Z,69.06
2022-12-27T17:49:09.743Z,68.50
2022-12-27T17:52:01.603Z,68.09
2022-12-27T17:54:48.078Z,68.27
2022-12-27T17:57:36.388Z,68.10
2022-12-27T18:00:06.427Z,68.49
2022-12-27T18:02:39.659Z,68.56
2022-12-27T18:05:14.790Z,68.72
2022-12-27T18:07:44.926Z,69.49
2022-12-27T18:10:21.131Z,69.77
2022-12-27T18:12:52.909Z,70.51
2022-12-27T18:15:23.652Z,70.78
2022-12-27T18:17:54.042Z,70.95
2022-12-27T18:20:31.046Z,70.84
2022-12-27T18:23:20.199Z,70.69
2022-12-27T18:26:02.809Z,70.54
2022-12-27T18:28:33.682Z,70.21
2022-12-27T18:31:08.698Z,70.26
2022-12-27T18:33:43.387Z,70.06
2022-12-27T18:36:17.899Z,70.25
2022-12-27T18:38:53.888Z,71.04
2022-12-27T18:41:24.037Z,72.43
2022-12-27T18:43:58.331Z,72.48
2022-12-27T18:46:29.468Z,72.58
2022-12-27T18:48:58.413Z,71.75
2022-12-27T18:51:36.257Z,71.55
2022-12-27T18:54:21.239Z,71.30
2022-12-27T18:56:52.557Z,71.92
2022-12-27T18:59:25.914Z,71.33
2022-12-27T19:01:55.223Z,70.86
2022-12-27T19:04:29.531Z,70.37
2022-12-27T19:07:08.652Z,70.35
2022-12-27T19:09:39.252Z,69.57
2022-12-27T19:12:10.378Z,69.51
2022-12-27T19:14:44.638Z,68.92
2022-12-27T19:17:19.163Z,69.38
2022-12-27T19:19:49.631Z,70.31
2022-12-27T19:22:36.027Z,70.62
2022-12-27T19:25:08.212Z,70.43
2022-12-27T19:27:36.610Z,70.71
2022-12-27T19:30:05.609Z,71.03
2022-12-27T19:32:36.478Z,71.15
2022-12-27T19:35:06.376Z,70.72
2022-12-27T19:37:36.681Z,70.72
2022-12-27T19:40:15.146Z,70.36
2022-12-27T19:42:45.003Z,70.00
2022-12-27T19:45:15.432Z,70.10
2022-12-27T19:47:43.984Z,70.43
2022-12-27T19:50:13.522Z,70.35
2022-12-27T19:52:44.611Z,70.08
2022-12-27T19:55:20.664Z,70.62
2022-12-27T19:57:49.541Z,71.86
2022-12-27T20:00:20.291Z,71.67
2022-12-27T20:02:52.361Z,71.39
2022-12-27T20:06:11.500Z,71.54
2022-12-27T20:08:23.915Z,71.89
2022-12-27T20:10:52.009Z,71.61
2022-12-27T20:13:21.083Z,71.76
2022-12-27T20:15:49.339Z,72.47
2022-12-27T20:18:17.639Z,72.09
2022-12-27T20:20:47.018Z,71.59
2022-12-27T20:23:17.025Z,72.35
2022-12-27T20:25:47.424Z,73.69
2022-12-27T20:28:17.732Z,73.38
2022-12-27T20:30:47.097Z,73.24
2022-12-27T20:33:16.041Z,72.85
2022-12-27T20:35:44.059Z,72.34
2022-12-27T20:38:12.930Z,73.04
2022-12-27T20:40:42.685Z,72.77
2022-12-27T20:43:10.955Z,73.31
2022-12-27T20:45:38.971Z,73.47
2022-12-27T20:48:09.353Z,73.90
2022-12-27T20:50:37.857Z,74.83
2022-12-27T20:53:06.069Z,76.48
2022-12-27T20:55:34.798Z,77.83
2022-12-27T20:58:04.949Z,78.20
2022-12-27T21:00:33.310Z,78.20
2022-12-27T21:03:01.392Z,77.14
2022-12-27T21:05:29.512Z,76.39
2022-12-27T21:07:57.720Z,75.22
2022-12-27T21:10:25.703Z,75.75
2022-12-27T21:12:53.744Z,76.14
2022-12-27T21:15:24.171Z,75.87
2022-12-27T21:17:52.318Z,77.21
2022-12-27T21:20:20.308Z,76.96
2022-12-27T21:22:48.608Z,76.55
2022-12-27T21:25:16.945Z,77.20
2022-12-27T21:27:44.952Z,76.72
2022-12-27T21:30:14.517Z,76.22
2022-12-27T21:32:44.115Z,75.62
2022-12-27T21:35:12.471Z,74.99
2022-12-27T21:37:40.970Z,75.73
2022-12-27T21:40:10.115Z,75.63
2022-12-27T21:42:38.314Z,74.86
2022-12-27T21:45:07.603Z,75.38
2022-12-27T21:47:36.159Z,76.01
2022-12-27T21:50:06.206Z,75.89
2022-12-27T21:52:34.227Z,75.70
2022-12-27T21:55:02.566Z,75.22
2022-12-27T21:57:30.620Z,75.90
2022-12-27T21:59:58.606Z,75.54
2022-12-27T22:02:26.864Z,74.58
2022-12-27T22:04:55.024Z,74.79
2022-12-27T22:07:24.832Z,74.71
2022-12-27T22:09:53.258Z,74.16
2022-12-27T22:12:21.421Z,73.41
2022-12-27T22:14:50.447Z,73.58
2022-12-27T22:17:18.702Z,73.42
2022-12-27T22:19:46.809Z,73.37
2022-12-27T22:22:15.021Z,72.93
2022-12-27T22:24:44.413Z,73.00
2022-12-27T22:27:12.632Z,72.78
2022-12-27T22:29:40.705Z,72.37
2022-12-27T22:32:08.749Z,72.33
2022-12-27T22:34:36.707Z,71.85
2022-12-27T22:37:05.004Z,72.64
2022-12-27T22:39:33.736Z,72.74
2022-12-27T22:42:03.166Z,73.12
2022-12-27T22:44:31.186Z,72.25
2022-12-27T22:49:47.568Z,72.32
2022-12-27T22:52:23.782Z,71.88
2022-12-27T22:55:04.399Z,71.56
2022-12-27T22:57:36.748Z,71.38
2022-12-27T23:00:06.585Z,71.37
2022-12-27T23:02:34.966Z,71.68
2022-12-27T23:05:03.456Z,71.77
2022-12-27T23:08:04.817Z,72.05
2022-12-27T23:10:19.550Z,71.42
2022-12-27T23:12:49.017Z,71.20
2022-12-27T23:15:17.524Z,71.11
2022-12-27T23:17:45.557Z,71.65
2022-12-27T23:20:13.780Z,71.20
2022-12-27T23:22:41.791Z,71.07
2022-12-27T23:25:10.053Z,71.91
2022-12-27T23:27:38.121Z,70.84
2022-12-27T23:30:08.792Z,71.89
2022-12-27T23:32:36.775Z,71.56
2022-12-27T23:35:05.277Z,71.64
2022-12-27T23:37:33.291Z,70.82
2022-12-27T23:40:01.529Z,71.91
2022-12-27T23:42:29.632Z,72.59
2022-12-27T23:44:57.628Z,72.24
2022-12-27T23:47:27.186Z,70.96
2022-12-27T23:49:55.282Z,71.30
2022-12-27T23:52:23.287Z,71.65
2022-12-27T23:54:51.398Z,71.48
2022-12-27T23:57:22.565Z,72.62
2022-12-27T23:59:51.673Z,72.05
